Time;durP1;ratioP1;P1;durP2;ratioP2;P2;SDS_P1;SDS_P2;PMS_P1;PMS_P2;Temp;Humidity;BMP_temperature;BMP_pressure;BME280_temperature;BME280_humidity;BME280_pressure;Samples;Min_cycle;Max_cycle;Signal;HPM_P1;HPM_P2
2021/03/07 00:02:08;;;;;;;16.23;7.77;;;1.90;98.30;;;;;;5136255;27;20019;-67
2021/03/07 00:04:34;;;;;;;12.20;7.10;;;1.90;98.30;;;;;;5138005;27;20027;-67
2021/03/07 00:06:59;;;;;;;13.48;7.50;;;1.90;98.20;;;;;;5138467;27;20016;-69
2021/03/07 00:09:25;;;;;;;11.70;8.10;;;1.90;98.20;;;;;;5139172;27;20109;-67
2021/03/07 00:11:51;;;;;;;15.37;9.50;;;1.90;98.10;;;;;;5140015;27;20113;-68
2021/03/07 00:14:17;;;;;;;16.63;9.33;;;1.90;98.10;;;;;;5140659;27;20163;-68
2021/03/07 00:16:43;;;;;;;11.38;7.28;;;1.90;98.10;;;;;;5140403;27;20023;-68
2021/03/07 00:19:08;;;;;;;13.90;7.87;;;1.90;98.30;;;;;;5138169;27;20027;-68
2021/03/07 00:21:34;;;;;;;13.10;7.90;;;1.80;98.30;;;;;;5139309;27;20033;-68
2021/03/07 00:24:00;;;;;;;11.47;8.23;;;1.80;98.50;;;;;;5140171;27;20023;-68
2021/03/07 00:26:25;;;;;;;11.50;6.87;;;1.70;98.90;;;;;;5139098;27;20019;-68
2021/03/07 00:28:51;;;;;;;13.73;8.13;;;1.60;99.30;;;;;;5140284;27;20052;-68
2021/03/07 00:31:17;;;;;;;14.40;8.03;;;1.50;99.70;;;;;;5139812;27;20256;-68
2021/03/07 00:33:42;;;;;;;13.13;7.80;;;1.40;99.90;;;;;;5139624;27;20015;-68
2021/03/07 00:36:08;;;;;;;12.37;7.33;;;1.30;99.90;;;;;;5140093;27;20030;-67
2021/03/07 00:38:33;;;;;;;13.83;7.93;;;1.30;99.90;;;;;;5138488;27;20495;-67
2021/03/07 00:40:59;;;;;;;15.70;7.90;;;1.30;99.90;;;;;;5137009;27;20026;-68
2021/03/07 00:43:25;;;;;;;14.10;7.97;;;1.30;99.90;;;;;;5136210;27;20019;-68
2021/03/07 00:45:50;;;;;;;16.40;7.97;;;1.30;99.90;;;;;;5134816;27;20015;-68
2021/03/07 00:48:16;;;;;;;13.47;8.80;;;1.20;99.90;;;;;;5135882;27;20035;-68
2021/03/07 00:50:42;;;;;;;14.50;8.00;;;1.30;99.90;;;;;;5135881;27;20051;-68
2021/03/07 00:53:08;;;;;;;15.20;7.80;;;1.30;99.90;;;;;;5135898;27;20031;-67
2021/03/07 00:55:34;;;;;;;19.03;8.77;;;1.30;99.70;;;;;;5136039;27;20076;-67
2021/03/07 00:57:59;;;;;;;14.57;8.17;;;1.30;99.40;;;;;;5134308;27;20023;-69
2021/03/07 01:00:28;;;;;;;13.07;7.53;;;1.30;99.40;;;;;;5135952;27;20019;-68
2021/03/07 01:02:54;;;;;;;11.75;7.85;;;1.30;99.60;;;;;;5135563;27;20023;-68
2021/03/07 01:05:20;;;;;;;12.15;7.55;;;1.40;99.20;;;;;;5135982;27;20072;-68
2021/03/07 01:07:46;;;;;;;13.15;7.78;;;1.40;99.30;;;;;;5136060;27;20432;-68
2021/03/07 01:10:14;;;;;;;15.27;7.80;;;1.40;99.10;;;;;;5135815;27;20144;-67
2021/03/07 01:12:41;;;;;;;14.88;7.75;;;1.30;99.30;;;;;;5136174;27;20019;-68
2021/03/07 01:15:07;;;;;;;14.60;7.93;;;1.30;99.00;;;;;;5136457;27;20019;-67
2021/03/07 01:17:33;;;;;;;14.20;7.90;;;1.30;99.00;;;;;;5136225;27;20031;-67
2021/03/07 01:19:59;;;;;;;13.67;7.60;;;1.30;99.10;;;;;;5136090;27;20020;-67
2021/03/07 01:22:24;;;;;;;14.43;7.37;;;1.30;99.10;;;;;;5136121;27;20039;-68
2021/03/07 01:24:50;;;;;;;13.03;7.53;;;1.30;99.20;;;;;;5135852;27;20064;-68
2021/03/07 01:27:16;;;;;;;12.47;7.57;;;1.30;99.50;;;;;;5135166;27;20023;-67
2021/03/07 01:29:41;;;;;;;10.97;7.13;;;1.30;99.20;;;;;;5135093;27;20015;-68
2021/03/07 01:32:07;;;;;;;16.63;7.90;;;1.20;99.40;;;;;;5133636;27;20076;-67
2021/03/07 01:34:33;;;;;;;13.00;7.60;;;1.20;99.60;;;;;;5133572;27;20064;-67
2021/03/07 01:36:58;;;;;;;19.60;9.10;;;1.20;99.80;;;;;;5135170;27;20023;-66
2021/03/07 01:39:24;;;;;;;11.97;7.50;;;1.20;99.80;;;;;;5134854;27;20476;-68
2021/03/07 01:41:49;;;;;;;13.63;7.23;;;1.20;99.70;;;;;;5134872;27;20031;-67
2021/03/07 01:44:15;;;;;;;11.30;6.97;;;1.20;99.40;;;;;;5135362;27;20375;-67
2021/03/07 01:46:41;;;;;;;15.30;8.27;;;1.20;99.30;;;;;;5134767;27;20218;-68
2021/03/07 01:49:07;;;;;;;12.87;7.30;;;1.20;99.30;;;;;;5134753;27;20053;-67
2021/03/07 01:51:32;;;;;;;14.70;6.70;;;1.20;99.20;;;;;;5134670;27;20026;-67
2021/03/07 01:53:58;;;;;;;12.33;7.23;;;1.20;98.90;;;;;;5134884;27;20382;-67
2021/03/07 01:56:26;;;;;;;13.83;6.80;;;1.20;99.10;;;;;;5135781;27;20034;-67
2021/03/07 01:58:54;;;;;;;11.38;6.63;;;1.20;98.90;;;;;;5136060;27;20411;-67
2021/03/07 02:01:20;;;;;;;11.88;6.30;;;1.20;98.70;;;;;;5135134;27;20022;-67
2021/03/07 02:03:51;;;;;;;10.20;6.45;;;1.20;98.80;;;;;;5136408;27;20371;-67
2021/03/07 02:06:17;;;;;;;12.55;6.55;;;1.20;98.90;;;;;;5134921;27;20035;-67
2021/03/07 02:08:43;;;;;;;11.10;6.45;;;1.20;98.60;;;;;;5135597;27;20034;-67
2021/03/07 02:11:09;;;;;;;9.77;5.63;;;1.20;98.60;;;;;;5133737;27;20031;-67
2021/03/07 02:13:40;;;;;;;10.07;6.03;;;1.20;98.60;;;;;;5135093;27;20102;-68
2021/03/07 02:16:21;;;;;;;11.68;6.10;;;1.20;98.70;;;;;;5134959;27;20555;-68
2021/03/07 02:18:50;;;;;;;12.10;5.97;;;1.20;98.60;;;;;;5134333;27;20218;-67
2021/03/07 02:21:33;;;;;;;12.50;6.90;;;1.10;99.00;;;;;;5132241;27;20079;-67
2021/03/07 02:24:02;;;;;;;10.52;6.68;;;1.10;99.00;;;;;;5134357;27;20467;-67
2021/03/07 02:26:28;;;;;;;12.20;7.13;;;1.10;99.10;;;;;;5134250;27;20031;-68
2021/03/07 02:28:54;;;;;;;14.55;6.30;;;1.10;99.10;;;;;;5134417;27;20560;-67
2021/03/07 02:31:22;;;;;;;10.30;6.00;;;1.10;98.90;;;;;;5135014;27;20035;-68
2021/03/07 02:33:52;;;;;;;12.63;6.40;;;1.00;98.90;;;;;;5133223;27;20031;-68
2021/03/07 02:36:24;;;;;;;12.00;5.65;;;1.10;99.00;;;;;;5135136;27;20027;-66
2021/03/07 02:38:51;;;;;;;9.70;5.97;;;1.00;98.90;;;;;;5134841;28;20043;-67
2021/03/07 02:41:17;;;;;;;;;;;1.00;99.10;;;;;;5135008;28;20020;-67
2021/03/07 02:43:46;;;;;;;10.77;6.07;;;1.00;99.10;;;;;;5132680;28;19903;-67
2021/03/07 02:46:15;;;;;;;10.30;5.53;;;1.00;99.10;;;;;;5133982;27;20019;-68
2021/03/07 02:48:42;;;;;;;10.65;6.13;;;1.00;99.20;;;;;;5134410;28;20059;-68
2021/03/07 02:51:10;;;;;;;7.85;5.18;;;1.00;98.70;;;;;;5133517;28;20035;-67
2021/03/07 02:53:38;;;;;;;10.38;5.53;;;1.00;98.60;;;;;;5133319;28;20395;-68
2021/03/07 02:56:20;;;;;;;10.48;5.35;;;1.10;98.50;;;;;;5132505;28;20027;-68
2021/03/07 02:58:48;;;;;;;8.02;4.38;;;1.10;98.30;;;;;;5132565;28;20480;-68
2021/03/07 03:01:18;;;;;;;10.23;5.05;;;1.10;98.00;;;;;;5134279;28;20039;-68
2021/03/07 03:03:45;;;;;;;8.00;4.78;;;1.10;97.40;;;;;;5133920;28;20435;-68
2021/03/07 03:06:15;;;;;;;8.65;4.65;;;1.20;97.30;;;;;;5132610;28;20051;-68
2021/03/07 03:08:44;;;;;;;9.15;5.15;;;1.20;97.20;;;;;;5133730;27;20127;-67
2021/03/07 03:11:10;;;;;;;9.60;5.35;;;1.20;97.10;;;;;;5132375;28;20019;-67
2021/03/07 03:13:37;;;;;;;8.82;5.72;;;1.20;97.10;;;;;;5132434;28;20377;-67
2021/03/07 03:16:05;;;;;;;9.48;5.57;;;1.10;97.30;;;;;;5132316;28;20031;-67
2021/03/07 03:18:33;;;;;;;9.50;5.03;;;1.10;97.40;;;;;;5133667;28;20031;-67
2021/03/07 03:21:02;;;;;;;9.02;4.70;;;1.10;97.60;;;;;;5132271;28;20015;-67
2021/03/07 03:23:28;;;;;;;12.50;5.90;;;1.10;97.50;;;;;;5132384;28;20023;-69
2021/03/07 03:25:54;;;;;;;8.55;5.05;;;1.10;97.50;;;;;;5132726;28;20023;-67
2021/03/07 03:28:22;;;;;;;10.02;5.57;;;1.10;97.90;;;;;;5134405;28;20115;-68
2021/03/07 03:30:48;;;;;;;8.10;5.30;;;1.10;97.70;;;;;;5134095;28;20019;-67
2021/03/07 03:33:14;;;;;;;9.18;5.28;;;1.00;97.90;;;;;;5136841;27;20023;-67
2021/03/07 03:35:39;;;;;;;7.70;4.97;;;1.00;97.90;;;;;;5137937;27;20479;-67
2021/03/07 03:38:05;;;;;;;11.27;5.53;;;1.00;98.00;;;;;;5135788;27;20045;-67
2021/03/07 03:40:32;;;;;;;10.18;5.45;;;1.10;98.80;;;;;;5137397;27;20075;-67
2021/03/07 03:43:05;;;;;;;11.25;5.80;;;1.30;98.20;;;;;;5137158;27;20030;-67
2021/03/07 03:45:33;;;;;;;9.88;5.38;;;1.30;98.20;;;;;;5137149;27;20033;-67
2021/03/07 03:48:07;;;;;;;7.72;5.05;;;1.30;97.50;;;;;;5135855;27;20041;-67
2021/03/07 03:50:38;;;;;;;8.63;4.78;;;1.30;97.70;;;;;;5136023;27;20038;-68
2021/03/07 03:53:09;;;;;;;10.40;5.85;;;1.30;97.70;;;;;;5135936;27;20133;-68
2021/03/07 03:55:36;;;;;;;8.70;4.80;;;1.20;98.10;;;;;;5137890;27;20047;-68
2021/03/07 03:58:04;;;;;;;9.23;5.28;;;1.10;98.20;;;;;;5137148;27;20103;-68
2021/03/07 04:00:34;;;;;;;8.55;4.97;;;1.10;98.40;;;;;;5137772;27;20023;-68
2021/03/07 04:03:00;;;;;;;9.73;4.72;;;1.00;98.40;;;;;;5136158;27;20111;-68
2021/03/07 04:05:28;;;;;;;9.48;5.65;;;1.00;98.70;;;;;;5138323;27;20440;-68
2021/03/07 04:07:54;;;;;;;8.68;4.68;;;1.00;98.90;;;;;;5138949;27;20495;-67
2021/03/07 04:10:23;;;;;;;8.63;5.57;;;0.90;98.90;;;;;;5139477;27;20030;-67
2021/03/07 04:12:51;;;;;;;8.90;5.30;;;0.90;99.00;;;;;;5137818;27;20122;-67
2021/03/07 04:15:20;;;;;;;9.07;5.38;;;0.90;99.20;;;;;;5137417;27;20031;-67
2021/03/07 04:17:49;;;;;;;10.60;4.93;;;0.90;99.30;;;;;;5136520;27;20019;-67
2021/03/07 04:20:16;;;;;;;9.80;5.43;;;0.90;99.40;;;;;;5137203;27;20019;-67
2021/03/07 04:22:42;;;;;;;8.75;5.20;;;0.90;99.40;;;;;;5136583;27;20379;-67
2021/03/07 04:25:10;;;;;;;8.23;4.95;;;0.90;99.40;;;;;;5136343;27;20023;-67
2021/03/07 04:27:36;;;;;;;9.52;4.68;;;0.90;99.60;;;;;;5135457;27;20042;-67
2021/03/07 04:30:06;;;;;;;8.18;4.85;;;0.90;99.80;;;;;;5136514;27;20027;-67
2021/03/07 04:32:33;;;;;;;8.18;4.65;;;0.90;99.60;;;;;;5136632;27;20480;-67
2021/03/07 04:35:00;;;;;;;9.75;5.32;;;0.90;99.50;;;;;;5136332;27;20380;-66
2021/03/07 04:37:26;;;;;;;7.70;4.85;;;0.90;99.50;;;;;;5135949;27;20468;-68
2021/03/07 04:39:52;;;;;;;10.97;6.00;;;0.90;99.90;;;;;;5136391;27;20065;-67
2021/03/07 04:42:17;;;;;;;9.80;5.27;;;0.80;99.90;;;;;;5136588;27;20071;-68
2021/03/07 04:44:43;;;;;;;9.23;5.43;;;0.80;99.90;;;;;;5134064;27;20080;-68
2021/03/07 04:47:09;;;;;;;11.63;6.43;;;0.70;99.90;;;;;;5135709;27;20019;-68
2021/03/07 04:49:34;;;;;;;9.13;5.53;;;0.60;99.90;;;;;;5136118;27;20030;-68
2021/03/07 04:52:00;;;;;;;8.97;5.37;;;0.50;99.90;;;;;;5135947;27;20757;-68
2021/03/07 04:54:26;;;;;;;9.02;5.38;;;0.50;99.90;;;;;;5134955;27;20483;-67
2021/03/07 04:56:51;;;;;;;8.80;5.60;;;0.50;99.90;;;;;;5135961;27;20483;-68
2021/03/07 04:59:17;;;;;;;13.63;5.77;;;0.40;99.90;;;;;;5135331;27;20027;-67
2021/03/07 05:01:43;;;;;;;10.80;6.30;;;0.40;99.90;;;;;;5135697;27;20030;-68
2021/03/07 05:04:08;;;;;;;8.77;5.40;;;0.30;99.90;;;;;;5135617;27;20019;-68
2021/03/07 05:06:38;;;;;;;13.30;5.70;;;0.30;99.90;;;;;;5135419;27;20051;-68
2021/03/07 05:09:09;;;;;;;10.00;5.53;;;0.30;99.90;;;;;;5135455;27;20031;-68
2021/03/07 05:11:35;;;;;;;9.20;5.65;;;0.30;99.90;;;;;;5135606;27;20397;-68
2021/03/07 05:14:01;;;;;;;9.35;5.57;;;0.30;99.90;;;;;;5135814;27;20057;-67
2021/03/07 05:16:28;;;;;;;9.80;5.68;;;0.20;99.90;;;;;;5135260;27;20488;-69
2021/03/07 05:18:54;;;;;;;12.40;5.65;;;0.20;99.90;;;;;;5135370;27;20031;-68
2021/03/07 05:21:19;;;;;;;11.30;5.83;;;0.20;99.90;;;;;;5134188;27;20128;-68
2021/03/07 05:23:45;;;;;;;10.23;5.90;;;0.20;99.90;;;;;;5135591;27;20364;-67
2021/03/07 05:26:11;;;;;;;11.43;6.07;;;0.20;99.90;;;;;;5135157;27;20257;-67
2021/03/07 05:28:37;;;;;;;11.52;6.38;;;0.20;99.90;;;;;;5133581;27;20068;-68
2021/03/07 05:31:03;;;;;;;9.53;6.17;;;0.20;99.90;;;;;;5135011;27;20106;-68
2021/03/07 05:33:29;;;;;;;8.50;5.85;;;0.10;99.90;;;;;;5135195;27;20269;-68
2021/03/07 05:35:55;;;;;;;11.07;6.20;;;0.10;99.90;;;;;;5134323;27;20030;-68
2021/03/07 05:38:21;;;;;;;10.23;6.68;;;0.10;99.90;;;;;;5136263;27;20024;-67
2021/03/07 05:40:47;;;;;;;10.85;6.05;;;0.10;99.90;;;;;;5133917;27;20201;-68
2021/03/07 05:43:12;;;;;;;10.37;6.10;;;0.10;99.90;;;;;;5135210;27;20515;-68
2021/03/07 05:45:38;;;;;;;11.07;6.73;;;0.10;99.90;;;;;;5135086;27;20023;-68
2021/03/07 05:48:04;;;;;;;12.80;6.00;;;0.00;99.90;;;;;;5135129;27;20031;-67
2021/03/07 05:50:30;;;;;;;10.73;6.60;;;0.00;99.90;;;;;;5136637;27;20156;-67
2021/03/07 05:52:57;;;;;;;10.37;6.30;;;-0.10;99.90;;;;;;5137023;27;20081;-67
2021/03/07 05:55:27;;;;;;;11.35;6.80;;;-0.10;99.90;;;;;;5136283;27;20039;-67
2021/03/07 05:57:57;;;;;;;13.18;6.43;;;-0.20;99.90;;;;;;5136551;27;20068;-67
2021/03/07 06:00:23;;;;;;;11.65;6.85;;;-0.20;99.90;;;;;;5133733;27;20023;-67
2021/03/07 06:02:49;;;;;;;11.25;6.15;;;-0.30;99.90;;;;;;5136883;27;20019;-67
2021/03/07 06:05:16;;;;;;;10.23;6.30;;;-0.30;99.90;;;;;;5135339;27;20114;-67
2021/03/07 06:07:43;;;;;;;10.20;6.28;;;-0.30;99.90;;;;;;5133019;27;20063;-67
2021/03/07 06:10:10;;;;;;;12.70;6.40;;;-0.30;99.90;;;;;;5132847;27;20026;-67
2021/03/07 06:12:35;;;;;;;10.88;6.40;;;-0.30;99.90;;;;;;5133090;27;20019;-67
2021/03/07 06:15:02;;;;;;;14.30;7.07;;;-0.30;99.90;;;;;;5134222;27;20042;-67
2021/03/07 06:17:39;;;;;;;13.63;7.05;;;-0.20;99.90;;;;;;5133991;27;20034;-66
2021/03/07 06:20:08;;;;;;;11.50;6.43;;;-0.20;99.90;;;;;;5134198;27;20026;-67
2021/03/07 06:22:36;;;;;;;12.60;7.15;;;-0.20;99.90;;;;;;5134160;27;20098;-68
2021/03/07 06:25:06;;;;;;;12.35;7.35;;;-0.20;99.90;;;;;;5134131;27;20019;-70
2021/03/07 06:27:32;;;;;;;12.93;7.15;;;-0.20;99.90;;;;;;5136766;27;20033;-69
2021/03/07 06:30:05;;;;;;;12.07;7.03;;;-0.20;99.90;;;;;;5137043;27;20019;-70
2021/03/07 06:32:41;;;;;;;12.50;6.88;;;-0.20;99.90;;;;;;5139044;27;20022;-71
2021/03/07 06:35:11;;;;;;;11.18;7.32;;;-0.20;99.90;;;;;;5136488;27;20030;-67
2021/03/07 06:38:06;;;;;;;12.48;6.38;;;-0.20;99.90;;;;;;5135285;27;20015;-72
2021/03/07 06:40:41;;;;;;;12.45;6.95;;;-0.20;99.90;;;;;;5134249;28;20153;-67
2021/03/07 06:43:25;;;;;;;9.30;6.32;;;0.00;99.90;;;;;;5134083;28;20023;-66
2021/03/07 06:45:51;;;;;;;10.20;6.15;;;-0.10;99.90;;;;;;5134456;28;20094;-65
2021/03/07 06:48:16;;;;;;;11.98;6.60;;;-0.10;99.90;;;;;;5133816;28;20124;-66
2021/03/07 06:51:11;;;;;;;12.60;6.93;;;-0.10;99.90;;;;;;5134180;28;20085;-66
2021/03/07 06:53:38;;;;;;;10.38;6.63;;;-0.20;99.90;;;;;;5120563;27;20391;-66
2021/03/07 06:56:05;;;;;;;10.88;6.68;;;-0.20;99.90;;;;;;5134052;27;20023;-66
2021/03/07 06:58:31;;;;;;;;;;;-0.20;99.90;;;;;;5132984;28;20023;-66
2021/03/07 07:00:57;;;;;;;12.70;7.38;;;-0.30;99.90;;;;;;5133838;28;20323;-66
2021/03/07 07:03:23;;;;;;;10.77;5.95;;;-0.30;99.90;;;;;;5134230;28;20030;-66
2021/03/07 07:05:53;;;;;;;12.70;6.57;;;-0.30;99.90;;;;;;5134191;28;20098;-65
2021/03/07 07:08:42;;;;;;;13.68;6.90;;;-0.30;99.90;;;;;;5137608;27;20023;-66
2021/03/07 07:11:08;;;;;;;13.45;7.32;;;-0.30;99.90;;;;;;5137909;27;20110;-65
2021/03/07 07:13:48;;;;;;;13.57;6.77;;;-0.20;99.90;;;;;;5137810;27;20062;-65
2021/03/07 07:16:14;;;;;;;9.52;5.88;;;-0.20;99.90;;;;;;5139650;27;20428;-65
2021/03/07 07:18:45;;;;;;;11.55;6.45;;;-0.20;99.90;;;;;;5138759;27;20490;-65
2021/03/07 07:21:14;;;;;;;10.75;6.15;;;-0.20;99.90;;;;;;5137866;27;20432;-65
2021/03/07 07:23:40;;;;;;;9.63;6.25;;;-0.20;99.90;;;;;;5137671;27;20059;-65
2021/03/07 07:26:06;;;;;;;11.30;5.82;;;-0.10;99.90;;;;;;5137663;27;20536;-65
2021/03/07 07:28:34;;;;;;;13.40;6.45;;;-0.10;99.90;;;;;;5136533;27;20471;-67
2021/03/07 07:30:59;;;;;;;11.57;6.40;;;-0.10;99.90;;;;;;5137906;27;20035;-65
2021/03/07 07:33:34;;;;;;;10.10;6.13;;;0.00;99.90;;;;;;5137781;27;20029;-66
2021/03/07 07:36:01;;;;;;;15.15;6.28;;;0.10;99.90;;;;;;5137493;27;20051;-66
2021/03/07 07:38:29;;;;;;;12.45;6.35;;;0.10;99.90;;;;;;5137469;27;20024;-65
2021/03/07 07:40:54;;;;;;;9.80;6.00;;;0.20;99.90;;;;;;5137283;27;20011;-65
2021/03/07 07:43:20;;;;;;;10.10;6.47;;;0.30;99.90;;;;;;5135870;27;20582;-66
2021/03/07 07:45:46;;;;;;;11.03;6.30;;;0.30;99.90;;;;;;5137698;27;20076;-66
2021/03/07 07:48:12;;;;;;;10.27;6.30;;;0.40;99.90;;;;;;5140681;27;20045;-66
2021/03/07 07:50:39;;;;;;;13.60;6.63;;;0.40;99.90;;;;;;5139132;27;20130;-66
2021/03/07 07:53:05;;;;;;;11.75;6.15;;;0.50;99.90;;;;;;5137288;27;20023;-65
2021/03/07 07:55:41;;;;;;;10.13;6.43;;;0.60;99.90;;;;;;5135917;27;20433;-65
2021/03/07 07:58:07;;;;;;;11.30;6.32;;;0.70;99.90;;;;;;5136937;27;20439;-66
2021/03/07 08:00:48;;;;;;;14.25;6.57;;;0.70;99.90;;;;;;5136926;27;20494;-66
2021/03/07 08:03:32;;;;;;;11.20;6.53;;;0.80;99.90;;;;;;5136709;27;20073;-67
2021/03/07 08:06:00;;;;;;;12.40;6.85;;;0.90;99.90;;;;;;5136771;27;20070;-65
2021/03/07 08:08:34;;;;;;;10.20;6.53;;;1.10;99.90;;;;;;5136508;27;20027;-66
2021/03/07 08:11:01;;;;;;;11.90;6.68;;;1.10;99.90;;;;;;5136910;27;20047;-66
2021/03/07 08:13:27;;;;;;;11.50;6.85;;;1.20;99.90;;;;;;5136733;27;20027;-65
2021/03/07 08:15:54;;;;;;;11.00;6.50;;;1.30;99.90;;;;;;5136562;27;20087;-66
2021/03/07 08:18:21;;;;;;;12.40;6.75;;;1.30;99.90;;;;;;5135253;27;20106;-66
2021/03/07 08:20:47;;;;;;;11.02;6.70;;;1.30;99.90;;;;;;5135058;27;20019;-66
2021/03/07 08:23:20;;;;;;;9.10;6.70;;;1.30;99.90;;;;;;5136661;27;20093;-66
2021/03/07 08:25:46;;;;;;;10.80;6.78;;;1.30;99.90;;;;;;5136633;27;20018;-66
2021/03/07 08:28:29;;;;;;;10.83;6.43;;;1.40;99.90;;;;;;5136272;27;20023;-66
2021/03/07 08:31:00;;;;;;;10.90;6.55;;;1.40;99.90;;;;;;5136211;27;20152;-67
2021/03/07 08:33:28;;;;;;;10.98;6.63;;;1.40;99.90;;;;;;5136415;27;20502;-66
2021/03/07 08:36:17;;;;;;;10.82;6.70;;;1.60;99.70;;;;;;5136452;27;20042;-66
2021/03/07 08:38:49;;;;;;;10.10;6.70;;;1.60;99.20;;;;;;5134590;27;20106;-66
2021/03/07 08:41:18;;;;;;;11.23;7.38;;;1.70;99.40;;;;;;5136161;27;20125;-67
2021/03/07 08:43:46;;;;;;;10.38;7.05;;;1.80;99.60;;;;;;5135880;27;20026;-67
2021/03/07 08:46:14;;;;;;;10.52;6.70;;;1.80;99.10;;;;;;5134455;27;20023;-67
2021/03/07 08:48:42;;;;;;;11.32;7.35;;;1.90;99.10;;;;;;5135688;27;20483;-66
2021/03/07 08:51:09;;;;;;;10.07;6.50;;;2.00;99.00;;;;;;5136183;27;20056;-66
2021/03/07 08:53:38;;;;;;;11.75;7.38;;;2.10;98.80;;;;;;5135766;27;20027;-65
2021/03/07 08:56:04;;;;;;;14.38;8.32;;;2.20;98.70;;;;;;5134436;27;20050;-66
2021/03/07 08:58:30;;;;;;;11.20;6.88;;;2.30;98.50;;;;;;5135622;27;20068;-66
2021/03/07 09:00:58;;;;;;;12.77;7.10;;;2.40;98.40;;;;;;5134508;27;20421;-66
2021/03/07 09:03:25;;;;;;;12.15;6.95;;;2.50;98.20;;;;;;5136108;27;20056;-66
2021/03/07 09:05:51;;;;;;;10.00;6.85;;;2.70;97.50;;;;;;5136240;27;20468;-66
2021/03/07 09:08:21;;;;;;;10.93;6.57;;;2.80;97.10;;;;;;5136389;27;20045;-66
2021/03/07 09:10:50;;;;;;;12.30;7.38;;;2.90;96.90;;;;;;5136061;27;20031;-66
2021/03/07 09:13:18;;;;;;;10.05;6.57;;;2.90;96.30;;;;;;5135889;27;20031;-66
2021/03/07 09:16:02;;;;;;;11.20;6.72;;;3.00;96.40;;;;;;5136203;27;20027;-66
2021/03/07 09:18:34;;;;;;;12.10;6.90;;;3.30;95.90;;;;;;5136580;27;20386;-67
2021/03/07 09:21:01;;;;;;;9.45;6.85;;;3.50;94.60;;;;;;5137247;27;20026;-66
2021/03/07 09:23:31;;;;;;;10.30;6.90;;;3.90;93.00;;;;;;5137669;27;20154;-66
2021/03/07 09:25:58;;;;;;;9.55;6.35;;;4.20;92.40;;;;;;5136722;27;20020;-67
2021/03/07 09:28:33;;;;;;;11.10;6.80;;;4.60;90.80;;;;;;5135752;27;20468;-65
2021/03/07 09:31:00;;;;;;;10.93;6.97;;;5.00;88.40;;;;;;5135393;27;20039;-66
2021/03/07 09:33:27;;;;;;;11.70;6.75;;;5.30;84.90;;;;;;5135610;27;20019;-67
2021/03/07 09:36:23;;;;;;;21.52;12.35;;;5.50;83.50;;;;;;5134318;27;20019;-66
2021/03/07 09:38:51;;;;;;;10.13;6.75;;;5.60;81.30;;;;;;5133607;27;20103;-66
2021/03/07 09:41:29;;;;;;;11.10;6.70;;;6.30;80.10;;;;;;5134919;27;20071;-67
2021/03/07 09:43:56;;;;;;;10.23;7.53;;;6.90;74.00;;;;;;5133807;27;20027;-66
2021/03/07 09:46:23;;;;;;;11.75;6.97;;;7.30;71.70;;;;;;5134934;27;20540;-67
2021/03/07 09:48:52;;;;;;;11.80;6.85;;;7.60;69.20;;;;;;5134765;27;20046;-67
2021/03/07 09:51:19;;;;;;;10.02;6.53;;;7.80;66.80;;;;;;5134758;27;20387;-66
2021/03/07 09:53:44;;;;;;;9.80;7.13;;;7.90;66.30;;;;;;5134631;27;20023;-67
2021/03/07 09:56:32;;;;;;;12.40;7.63;;;7.90;65.00;;;;;;5135069;27;20027;-68
2021/03/07 09:59:16;;;;;;;9.10;6.90;;;7.80;65.20;;;;;;5133264;27;20027;-66
2021/03/07 10:01:50;;;;;;;8.70;6.45;;;7.50;65.20;;;;;;5134466;27;20019;-67
2021/03/07 10:04:36;;;;;;;13.52;7.28;;;7.40;67.00;;;;;;5134947;27;20028;-66
2021/03/07 10:07:25;;;;;;;11.38;7.00;;;7.20;67.40;;;;;;5134929;27;20016;-67
2021/03/07 10:10:08;;;;;;;9.60;6.63;;;7.10;68.20;;;;;;5134501;27;20019;-66
2021/03/07 10:12:40;;;;;;;8.88;6.80;;;7.00;69.10;;;;;;5133056;27;20019;-66
2021/03/07 10:15:08;;;;;;;9.80;6.55;;;6.90;68.60;;;;;;5134412;27;20345;-66
2021/03/07 10:17:39;;;;;;;10.48;7.03;;;6.90;69.70;;;;;;5134282;27;20026;-66
2021/03/07 10:20:07;;;;;;;9.85;6.60;;;7.00;70.10;;;;;;5134527;27;20019;-67
2021/03/07 10:22:45;;;;;;;11.85;7.00;;;7.10;69.30;;;;;;5134251;27;20020;-66
2021/03/07 10:25:30;;;;;;;10.23;7.40;;;7.30;69.50;;;;;;5134199;27;20358;-66
2021/03/07 10:28:03;;;;;;;11.93;6.97;;;7.30;67.70;;;;;;5134472;27;20033;-67
2021/03/07 10:30:37;;;;;;;11.10;7.45;;;7.40;68.20;;;;;;5134072;27;20119;-66
2021/03/07 10:33:12;;;;;;;12.00;7.70;;;7.50;68.10;;;;;;5133946;27;20026;-66
2021/03/07 10:35:39;;;;;;;9.15;6.82;;;7.60;67.10;;;;;;5132681;27;20031;-67
2021/03/07 10:38:17;;;;;;;10.65;7.20;;;7.80;66.40;;;;;;5133978;27;20019;-66
2021/03/07 10:40:42;;;;;;;11.30;7.68;;;7.80;66.20;;;;;;5134180;27;20045;-66
2021/03/07 10:43:08;;;;;;;8.37;6.10;;;8.20;64.40;;;;;;5133631;28;20015;-67
2021/03/07 10:45:39;;;;;;;10.07;7.03;;;8.20;63.70;;;;;;5133874;28;20447;-66
2021/03/07 10:48:12;;;;;;;9.25;6.57;;;8.10;63.80;;;;;;5133780;27;20499;-66
2021/03/07 10:50:49;;;;;;;10.63;7.00;;;7.90;65.20;;;;;;5132602;28;20027;-67
2021/03/07 10:53:17;;;;;;;11.35;7.43;;;7.80;64.00;;;;;;5132657;28;20113;-66
2021/03/07 10:55:51;;;;;;;10.25;7.10;;;7.70;64.50;;;;;;5132980;28;20076;-67
2021/03/07 10:58:17;;;;;;;10.05;6.90;;;8.10;64.70;;;;;;5133915;28;20440;-69
2021/03/07 11:00:42;;;;;;;11.38;7.45;;;8.50;62.70;;;;;;5134044;28;20028;-68
2021/03/07 11:03:08;;;;;;;10.37;7.13;;;9.00;62.30;;;;;;5133956;28;20029;-68
2021/03/07 11:05:34;;;;;;;10.38;7.15;;;11.20;57.50;;;;;;5134087;28;20051;-69
2021/03/07 11:07:59;;;;;;;9.23;7.18;;;13.10;51.30;;;;;;5133811;28;20034;-69
2021/03/07 11:10:25;;;;;;;9.00;7.20;;;14.10;47.50;;;;;;5133843;28;20226;-69
2021/03/07 11:12:51;;;;;;;8.40;6.75;;;14.30;45.80;;;;;;5133788;28;20027;-68
2021/03/07 11:15:18;;;;;;;;;;;14.20;44.80;;;;;;5132975;28;20053;-70
2021/03/07 11:17:44;;;;;;;9.15;7.15;;;13.10;46.40;;;;;;5133488;28;19909;-68
2021/03/07 11:20:12;;;;;;;9.82;7.50;;;12.10;47.90;;;;;;5133604;28;20102;-68
2021/03/07 11:22:38;;;;;;;9.80;7.70;;;11.10;49.60;;;;;;5134468;28;20030;-68
2021/03/07 11:25:05;;;;;;;9.50;7.05;;;10.50;51.50;;;;;;5133778;28;20023;-68
2021/03/07 11:27:31;;;;;;;9.40;7.07;;;9.70;53.60;;;;;;5133956;28;20056;-67
2021/03/07 11:29:56;;;;;;;8.90;6.87;;;9.00;55.20;;;;;;5133814;28;20030;-67
2021/03/07 11:32:22;;;;;;;11.23;7.30;;;8.30;57.10;;;;;;5133998;28;20102;-68
2021/03/07 11:34:48;;;;;;;11.23;7.57;;;8.00;59.20;;;;;;5133544;28;20026;-68
2021/03/07 11:37:13;;;;;;;11.10;8.37;;;7.80;60.70;;;;;;5132121;28;20092;-69
2021/03/07 11:39:39;;;;;;;11.93;7.87;;;7.70;61.70;;;;;;5133553;28;20444;-69
2021/03/07 11:42:05;;;;;;;11.83;7.67;;;7.50;62.40;;;;;;5133623;28;20094;-69
2021/03/07 11:44:31;;;;;;;;;;;7.40;63.50;;;;;;5132367;28;20379;-70
2021/03/07 11:46:57;;;;;;;11.57;7.32;;;7.40;64.70;;;;;;5132237;28;19915;-70
2021/03/07 11:49:22;;;;;;;11.73;7.70;;;7.20;64.80;;;;;;5132175;28;20170;-69
2021/03/07 11:51:48;;;;;;;9.57;7.07;;;7.00;66.20;;;;;;5133315;28;20023;-68
2021/03/07 11:54:14;;;;;;;10.18;7.00;;;7.00;67.80;;;;;;5133840;27;20023;-70
2021/03/07 11:56:40;;;;;;;12.30;7.90;;;7.10;68.40;;;;;;5135535;27;20034;-68
2021/03/07 11:59:06;;;;;;;10.43;7.13;;;7.10;68.80;;;;;;5135511;27;20755;-68
2021/03/07 12:01:32;;;;;;;10.73;7.55;;;7.10;69.60;;;;;;5137175;27;20114;-71
2021/03/07 12:03:59;;;;;;;10.50;7.50;;;7.10;69.00;;;;;;5135489;27;20072;-69
2021/03/07 12:06:25;;;;;;;11.85;7.57;;;7.00;69.70;;;;;;5135413;27;20043;-69
2021/03/07 12:08:51;;;;;;;13.05;7.80;;;7.00;70.40;;;;;;5137032;27;20059;-70
2021/03/07 12:11:17;;;;;;;12.20;7.88;;;7.00;70.90;;;;;;5136614;27;20042;-69
2021/03/07 12:13:43;;;;;;;11.82;7.72;;;7.00;71.30;;;;;;5136698;27;20392;-69
2021/03/07 12:16:09;;;;;;;10.67;7.73;;;7.10;71.50;;;;;;5136586;27;20057;-69
2021/03/07 12:18:37;;;;;;;12.10;8.20;;;7.20;71.10;;;;;;5136578;27;20703;-70
2021/03/07 12:21:04;;;;;;;11.95;7.18;;;7.20;70.20;;;;;;5136587;27;20016;-69
2021/03/07 12:23:29;;;;;;;12.13;7.53;;;7.40;71.00;;;;;;5136629;27;20485;-69
2021/03/07 12:25:55;;;;;;;10.32;7.68;;;7.40;71.00;;;;;;5136481;27;20039;-69
2021/03/07 12:28:21;;;;;;;12.53;7.87;;;7.50;70.90;;;;;;5136375;27;20514;-69
2021/03/07 12:30:47;;;;;;;12.97;7.73;;;7.60;70.10;;;;;;5136297;27;20024;-69
2021/03/07 12:33:12;;;;;;;10.88;7.60;;;7.50;70.10;;;;;;5136345;27;20024;-70
2021/03/07 12:35:38;;;;;;;12.63;8.43;;;7.60;69.60;;;;;;5136275;27;20046;-69
2021/03/07 12:38:04;;;;;;;10.77;7.40;;;7.70;69.70;;;;;;5135112;27;20031;-68
2021/03/07 12:40:29;;;;;;;12.77;8.03;;;7.80;69.70;;;;;;5136480;27;20115;-69
2021/03/07 12:42:55;;;;;;;11.83;7.90;;;7.90;68.30;;;;;;5134986;27;20086;-70
2021/03/07 12:45:21;;;;;;;16.53;7.73;;;8.00;68.30;;;;;;5136715;27;20015;-70
2021/03/07 12:47:47;;;;;;;13.23;7.95;;;8.00;68.70;;;;;;5134635;27;20114;-69
2021/03/07 12:50:12;;;;;;;11.60;7.97;;;8.00;67.90;;;;;;5134676;27;20024;-69
2021/03/07 12:52:38;;;;;;;11.53;7.60;;;8.10;67.60;;;;;;5134972;27;20024;-71
2021/03/07 12:55:04;;;;;;;11.43;7.53;;;8.20;67.10;;;;;;5134877;27;20027;-70